createdAt,value
2018-12-09T00:00:32.127Z,7.55
2018-12-09T00:02:59.538Z,7.54
2018-12-09T00:05:26.964Z,7.60
2018-12-09T00:07:54.385Z,7.57
2018-12-09T00:10:21.801Z,7.66
2018-12-09T00:12:49.210Z,7.69
2018-12-09T00:15:16.639Z,8.18
2018-12-09T00:17:44.047Z,8.16
2018-12-09T00:20:11.475Z,8.10
2018-12-09T00:22:38.886Z,8.05
2018-12-09T00:25:06.310Z,7.94
2018-12-09T00:27:33.725Z,7.85
2018-12-09T00:30:01.148Z,7.79
2018-12-09T00:32:28.583Z,7.67
2018-12-09T00:34:56.010Z,7.69
2018-12-09T00:37:23.419Z,7.54
2018-12-09T00:39:50.831Z,7.58
2018-12-09T00:42:18.247Z,7.49
2018-12-09T00:44:45.680Z,7.48
2018-12-09T00:47:13.124Z,7.57
2018-12-09T00:49:40.546Z,7.56
2018-12-09T00:52:07.955Z,7.56
2018-12-09T00:54:35.376Z,7.55
2018-12-09T00:57:02.779Z,7.51
2018-12-09T00:59:30.195Z,7.56
2018-12-09T01:01:57.621Z,7.59
2018-12-09T01:04:25.046Z,7.82
2018-12-09T01:06:52.457Z,7.85
2018-12-09T01:09:19.887Z,7.81
2018-12-09T01:11:47.308Z,7.74
2018-12-09T01:14:14.718Z,7.80
2018-12-09T01:16:42.135Z,7.86
2018-12-09T01:19:09.571Z,8.00
2018-12-09T01:21:36.974Z,8.02
2018-12-09T01:24:04.450Z,8.14
2018-12-09T01:26:31.858Z,8.05
2018-12-09T01:28:59.278Z,8.19
2018-12-09T01:31:26.711Z,8.22
2018-12-09T01:33:54.130Z,8.33
2018-12-09T01:36:21.622Z,8.23
2018-12-09T01:38:49.031Z,8.30
2018-12-09T01:41:16.510Z,8.19
2018-12-09T01:43:43.970Z,8.23
2018-12-09T01:46:11.392Z,8.32
2018-12-09T01:48:38.814Z,8.64
2018-12-09T01:51:06.304Z,8.56
2018-12-09T01:53:33.717Z,8.50
2018-12-09T01:56:01.202Z,8.61
2018-12-09T01:58:28.628Z,8.61
2018-12-09T02:00:56.427Z,8.62
2018-12-09T02:03:23.843Z,8.76
2018-12-09T02:05:51.255Z,8.72
2018-12-09T02:08:18.676Z,8.71
2018-12-09T02:10:46.167Z,9.00
2018-12-09T02:13:13.875Z,8.96
2018-12-09T02:15:41.375Z,9.01
2018-12-09T02:18:08.795Z,9.01
2018-12-09T02:20:36.211Z,9.17
2018-12-09T02:23:03.627Z,9.17
2018-12-09T02:25:31.047Z,9.15
2018-12-09T02:27:58.460Z,9.20
2018-12-09T02:30:25.905Z,9.17
2018-12-09T02:32:53.392Z,9.06
2018-12-09T02:35:20.878Z,9.11
2018-12-09T02:37:48.295Z,9.18
2018-12-09T02:40:15.772Z,9.18
2018-12-09T02:42:43.179Z,9.25
2018-12-09T02:45:10.694Z,9.33
2018-12-09T02:47:38.164Z,9.39
2018-12-09T02:50:05.657Z,9.42
2018-12-09T02:52:33.157Z,9.30
2018-12-09T02:55:00.633Z,9.40
2018-12-09T02:57:28.173Z,9.36
2018-12-09T02:59:55.835Z,9.38
2018-12-09T03:02:23.250Z,9.54
2018-12-09T03:04:50.775Z,9.45
2018-12-09T03:07:18.204Z,9.52
2018-12-09T03:09:45.714Z,9.41
2018-12-09T03:12:13.583Z,9.37
2018-12-09T03:14:41.084Z,9.32
2018-12-09T03:17:08.509Z,9.31
2018-12-09T03:19:36.091Z,9.16
2018-12-09T03:22:03.580Z,9.14
2018-12-09T03:24:31.267Z,9.14
2018-12-09T03:26:58.687Z,9.05
2018-12-09T03:29:26.107Z,9.04
2018-12-09T03:31:53.533Z,9.03
2018-12-09T03:34:20.942Z,9.02
2018-12-09T03:36:48.535Z,8.99
2018-12-09T03:39:15.958Z,9.07
2018-12-09T03:41:43.379Z,8.86
2018-12-09T03:44:10.786Z,8.85
2018-12-09T03:46:38.288Z,9.06
2018-12-09T03:49:05.983Z,9.00
2018-12-09T03:51:33.417Z,9.10
2018-12-09T03:54:00.827Z,8.93
2018-12-09T03:56:28.367Z,8.92
2018-12-09T03:58:55.787Z,8.92
2018-12-09T04:01:23.595Z,9.00
2018-12-09T04:03:51.023Z,9.12
2018-12-09T04:06:18.520Z,9.21
2018-12-09T04:08:46.011Z,9.39
2018-12-09T04:11:13.436Z,9.34
2018-12-09T04:13:41.231Z,9.42
2018-12-09T04:16:08.733Z,9.62
2018-12-09T04:18:36.245Z,9.51
2018-12-09T04:21:03.660Z,9.47
2018-12-09T04:23:31.143Z,9.29
2018-12-09T04:25:58.931Z,9.09
2018-12-09T04:28:26.351Z,9.11
2018-12-09T04:30:53.770Z,8.98
2018-12-09T04:33:21.208Z,8.85
2018-12-09T04:35:48.639Z,8.94
2018-12-09T04:38:16.416Z,8.88
2018-12-09T04:40:43.916Z,8.86
2018-12-09T04:43:11.316Z,8.89
2018-12-09T04:45:38.816Z,8.93
2018-12-09T04:48:06.303Z,8.88
2018-12-09T04:50:34.095Z,8.88
2018-12-09T04:53:01.521Z,8.81
2018-12-09T04:55:28.928Z,8.95
2018-12-09T04:57:56.341Z,9.03
2018-12-09T05:00:23.751Z,8.95
2018-12-09T05:02:51.353Z,8.96
2018-12-09T05:05:18.758Z,8.88
2018-12-09T05:07:46.187Z,8.81
2018-12-09T05:10:13.673Z,8.66
2018-12-09T05:12:41.100Z,8.45
2018-12-09T05:15:08.896Z,8.37
2018-12-09T05:17:36.324Z,8.29
2018-12-09T05:20:03.740Z,8.20
2018-12-09T05:22:31.150Z,8.21
2018-12-09T05:24:58.576Z,8.26
2018-12-09T05:27:26.004Z,8.30
2018-12-09T05:29:53.440Z,8.32
2018-12-09T05:32:20.846Z,8.23
2018-12-09T05:34:48.351Z,8.24
2018-12-09T05:37:15.771Z,8.28
2018-12-09T05:39:43.194Z,8.27
2018-12-09T05:42:10.609Z,8.20
2018-12-09T05:44:38.087Z,8.14
2018-12-09T05:47:05.516Z,8.19
2018-12-09T05:49:33.016Z,8.11
2018-12-09T05:52:00.433Z,8.08
2018-12-09T05:54:27.847Z,7.98
2018-12-09T05:56:55.259Z,7.93
2018-12-09T05:59:22.677Z,7.86
2018-12-09T06:01:50.180Z,7.75
2018-12-09T06:04:17.591Z,7.69
2018-12-09T06:06:45.283Z,7.67
2018-12-09T06:09:12.707Z,7.60
2018-12-09T06:11:40.192Z,7.61
2018-12-09T06:14:07.683Z,7.55
2018-12-09T06:16:35.101Z,7.62
2018-12-09T06:19:02.883Z,7.66
2018-12-09T06:21:30.298Z,7.62
2018-12-09T06:23:57.720Z,7.53
2018-12-09T06:26:25.151Z,7.48
2018-12-09T06:28:52.745Z,7.47
2018-12-09T06:31:20.530Z,7.55
2018-12-09T06:33:47.942Z,7.58
2018-12-09T06:36:15.355Z,7.56
2018-12-09T06:38:42.771Z,7.54
2018-12-09T06:41:10.260Z,7.50
2018-12-09T06:43:37.688Z,7.46
2018-12-09T06:46:05.101Z,7.35
2018-12-09T06:48:32.514Z,7.41
2018-12-09T06:50:59.927Z,7.43
2018-12-09T06:53:27.436Z,7.39
2018-12-09T06:55:54.928Z,7.31
2018-12-09T06:58:22.354Z,7.35
2018-12-09T07:00:49.828Z,7.34
2018-12-09T07:03:17.315Z,7.27
2018-12-09T07:05:44.729Z,7.27
2018-12-09T07:08:12.186Z,7.31
2018-12-09T07:10:39.666Z,7.27
2018-12-09T07:13:07.083Z,7.25
2018-12-09T07:15:34.494Z,7.26
2018-12-09T07:18:01.914Z,7.31
2018-12-09T07:20:29.314Z,7.42
2018-12-09T07:22:56.745Z,7.42
2018-12-09T07:25:24.246Z,7.48
2018-12-09T07:27:51.679Z,7.58
2018-12-09T07:30:19.082Z,7.52
2018-12-09T07:32:46.502Z,7.68
2018-12-09T07:35:13.924Z,7.74
2018-12-09T07:37:41.611Z,7.76
2018-12-09T07:40:09.094Z,7.76
2018-12-09T07:42:36.523Z,7.74
2018-12-09T07:45:04.028Z,7.78
2018-12-09T07:47:31.453Z,7.90
2018-12-09T07:49:58.866Z,7.91
2018-12-09T07:52:26.369Z,7.87
2018-12-09T07:54:53.775Z,7.92
2018-12-09T07:57:21.198Z,8.04
2018-12-09T07:59:48.693Z,8.05
2018-12-09T08:02:16.107Z,8.13
2018-12-09T08:04:43.515Z,8.10
2018-12-09T08:07:10.968Z,8.17
2018-12-09T08:09:38.376Z,8.15
2018-12-09T08:12:05.797Z,8.20
2018-12-09T08:14:33.212Z,8.21
2018-12-09T08:17:00.706Z,8.20
2018-12-09T08:19:28.112Z,8.22
2018-12-09T08:21:55.527Z,8.16
2018-12-09T08:24:23.903Z,8.23
2018-12-09T08:26:51.328Z,8.16
2018-12-09T08:29:18.744Z,8.10
2018-12-09T08:31:46.147Z,8.12
2018-12-09T08:34:13.554Z,8.20
2018-12-09T08:36:40.970Z,8.27
2018-12-09T08:39:08.412Z,8.23
2018-12-09T08:41:35.832Z,8.25
2018-12-09T08:44:03.260Z,8.25
2018-12-09T08:46:30.676Z,8.31
2018-12-09T08:48:58.119Z,8.34
2018-12-09T08:51:25.530Z,8.42
2018-12-09T08:53:52.952Z,8.43
2018-12-09T08:56:20.368Z,8.39
2018-12-09T08:58:47.789Z,8.38
2018-12-09T09:01:15.212Z,8.35
2018-12-09T09:03:42.619Z,8.36
2018-12-09T09:06:10.039Z,8.32
2018-12-09T09:08:37.443Z,8.31
2018-12-09T09:11:04.855Z,8.30
2018-12-09T09:13:33.182Z,8.26
2018-12-09T09:16:00.612Z,8.28
2018-12-09T09:18:28.027Z,8.33
2018-12-09T09:20:55.453Z,8.33
2018-12-09T09:23:22.959Z,8.33
2018-12-09T09:25:50.368Z,8.38
2018-12-09T09:28:17.806Z,8.43
2018-12-09T09:30:45.210Z,8.50
2018-12-09T09:33:12.627Z,8.56
2018-12-09T09:35:40.051Z,8.69
2018-12-09T09:38:07.467Z,8.66
2018-12-09T09:40:34.923Z,8.72
2018-12-09T09:43:02.382Z,8.72
2018-12-09T09:45:29.797Z,8.76
2018-12-09T09:47:57.243Z,8.97
2018-12-09T09:50:24.659Z,8.99
2018-12-09T09:52:52.071Z,9.14
2018-12-09T09:55:19.490Z,9.19
2018-12-09T09:57:46.907Z,9.09
2018-12-09T10:00:14.332Z,9.20
2018-12-09T10:02:41.768Z,9.06
2018-12-09T10:05:09.199Z,9.09
2018-12-09T10:07:36.632Z,9.21
2018-12-09T10:10:04.105Z,9.28
2018-12-09T10:12:31.551Z,9.44
2018-12-09T10:14:58.975Z,9.36
2018-12-09T10:17:26.575Z,9.45
2018-12-09T10:19:54.011Z,9.25
2018-12-09T10:22:21.427Z,9.19
2018-12-09T10:24:48.955Z,9.21
2018-12-09T10:27:16.528Z,9.23
2018-12-09T10:29:43.955Z,9.35
2018-12-09T10:32:11.953Z,9.40
2018-12-09T10:34:39.397Z,9.46
2018-12-09T10:37:06.823Z,9.43
2018-12-09T10:39:34.235Z,9.50
2018-12-09T10:42:01.652Z,9.56
2018-12-09T10:44:29.066Z,9.46
2018-12-09T10:46:56.912Z,9.41
2018-12-09T10:49:24.332Z,9.48
2018-12-09T10:51:51.747Z,9.56
2018-12-09T10:54:19.175Z,9.69
2018-12-09T10:56:46.611Z,9.69
2018-12-09T10:59:14.039Z,9.70
2018-12-09T11:01:45.653Z,9.73
2018-12-09T11:04:13.228Z,10.04
2018-12-09T11:06:40.890Z,10.19
2018-12-09T11:09:08.396Z,10.40
2018-12-09T11:11:35.831Z,10.40
2018-12-09T11:14:03.285Z,10.48
2018-12-09T11:16:30.703Z,10.62
2018-12-09T11:18:58.131Z,10.59
2018-12-09T11:21:30.504Z,10.61
2018-12-09T11:23:54.963Z,10.61
2018-12-09T11:26:22.863Z,10.64
2018-12-09T11:28:50.345Z,10.66
2018-12-09T11:31:17.762Z,10.59
2018-12-09T11:33:45.228Z,10.83
2018-12-09T11:36:12.642Z,10.71
2018-12-09T11:38:40.068Z,10.84
2018-12-09T11:41:07.497Z,10.68
2018-12-09T11:43:34.940Z,10.77
2018-12-09T11:46:03.413Z,10.78
2018-12-09T11:48:31.039Z,10.76
2018-12-09T11:50:58.458Z,10.75
2018-12-09T11:53:25.888Z,10.61
2018-12-09T11:55:53.322Z,10.44
2018-12-09T11:58:21.027Z,10.56
2018-12-09T12:00:48.442Z,10.59
2018-12-09T12:03:16.438Z,10.33
2018-12-09T12:05:43.862Z,10.37
2018-12-09T12:08:11.298Z,10.29
2018-12-09T12:10:38.716Z,10.13
2018-12-09T12:13:06.132Z,10.32
2018-12-09T12:15:33.669Z,10.08
2018-12-09T12:18:01.166Z,10.20
2018-12-09T12:20:28.615Z,10.09
2018-12-09T12:22:56.051Z,10.09
2018-12-09T12:25:23.511Z,9.99
2018-12-09T12:27:50.931Z,9.72
2018-12-09T12:30:18.403Z,9.59
2018-12-09T12:32:46.192Z,9.60
2018-12-09T12:35:13.614Z,9.60
2018-12-09T12:37:41.070Z,9.43
2018-12-09T12:40:08.539Z,9.41
2018-12-09T12:42:35.970Z,9.25
2018-12-09T12:45:03.464Z,9.23
2018-12-09T12:47:30.880Z,9.19
2018-12-09T12:49:58.347Z,9.10
2018-12-09T12:52:25.760Z,8.97
2018-12-09T12:54:53.175Z,8.93
2018-12-09T12:57:20.590Z,8.85
2018-12-09T12:59:48.006Z,8.92
2018-12-09T13:02:15.467Z,8.91
2018-12-09T13:04:42.914Z,8.90
2018-12-09T13:07:10.322Z,8.83
2018-12-09T13:09:37.827Z,8.82
2018-12-09T13:12:05.776Z,8.76
2018-12-09T13:14:33.219Z,8.76
2018-12-09T13:17:00.996Z,8.75
2018-12-09T13:19:28.488Z,8.84
2018-12-09T13:21:55.936Z,8.80
2018-12-09T13:24:23.349Z,8.84
2018-12-09T13:26:50.847Z,8.78
2018-12-09T13:29:18.310Z,8.84
2018-12-09T13:31:45.758Z,8.78
2018-12-09T13:34:13.185Z,8.81
2018-12-09T13:36:40.684Z,8.90
2018-12-09T13:39:08.922Z,8.92
2018-12-09T13:41:36.355Z,8.86
2018-12-09T13:44:03.787Z,8.88
2018-12-09T13:46:31.231Z,9.03
2018-12-09T13:48:59.411Z,9.08
2018-12-09T13:51:26.856Z,9.04
2018-12-09T13:53:54.323Z,9.04
2018-12-09T13:56:21.752Z,9.04
2018-12-09T13:58:49.162Z,9.04
2018-12-09T14:01:16.692Z,8.90
2018-12-09T14:03:44.108Z,8.50
2018-12-09T14:06:11.611Z,8.03
2018-12-09T14:08:39.023Z,7.58
2018-12-09T14:11:06.447Z,7.43
2018-12-09T14:13:33.951Z,7.44
2018-12-09T14:16:01.371Z,7.44
2018-12-09T14:18:28.867Z,7.32
2018-12-09T14:20:56.346Z,7.18
2018-12-09T14:23:23.764Z,7.20
2018-12-09T14:25:51.263Z,7.22
2018-12-09T14:28:18.704Z,7.12
2018-12-09T14:30:46.135Z,7.16
2018-12-09T14:33:13.676Z,7.13
2018-12-09T14:35:41.096Z,7.12
2018-12-09T14:38:08.975Z,7.09
2018-12-09T14:40:36.400Z,7.04
2018-12-09T14:43:03.810Z,7.05
2018-12-09T14:45:31.232Z,7.03
2018-12-09T14:47:58.655Z,7.09
2018-12-09T14:50:26.084Z,7.15
2018-12-09T14:52:54.180Z,7.18
2018-12-09T14:55:21.636Z,7.27
2018-12-09T14:57:49.135Z,7.29
2018-12-09T15:00:16.547Z,7.23
2018-12-09T15:02:43.958Z,7.28
2018-12-09T15:05:11.434Z,7.36
2018-12-09T15:07:38.855Z,7.35
2018-12-09T15:10:08.933Z,7.25
2018-12-09T15:12:36.059Z,7.30
2018-12-09T15:15:03.473Z,7.25
2018-12-09T15:17:30.943Z,7.20
2018-12-09T15:19:59.252Z,7.37
2018-12-09T15:22:26.683Z,7.34
2018-12-09T15:24:54.176Z,7.38
2018-12-09T15:27:21.582Z,7.39
2018-12-09T15:29:48.999Z,7.42
2018-12-09T15:32:16.420Z,7.40
2018-12-09T15:34:43.863Z,7.32
2018-12-09T15:37:11.328Z,7.37
2018-12-09T15:39:38.755Z,7.25
2018-12-09T15:42:06.186Z,7.21
2018-12-09T15:44:33.811Z,7.21
2018-12-09T15:47:01.231Z,7.31
2018-12-09T15:49:28.716Z,7.25
2018-12-09T15:51:56.146Z,7.34
2018-12-09T15:54:23.798Z,7.32
2018-12-09T15:56:51.286Z,7.23
2018-12-09T15:59:20.792Z,7.16
2018-12-09T16:01:48.255Z,7.10
2018-12-09T16:04:16.539Z,7.09
2018-12-09T16:06:44.093Z,7.30
2018-12-09T16:09:11.567Z,7.31
2018-12-09T16:11:38.985Z,7.32
2018-12-09T16:14:06.463Z,7.36
2018-12-09T16:16:33.923Z,7.38
2018-12-09T16:19:01.337Z,7.26
2018-12-09T16:21:28.841Z,7.21
2018-12-09T16:23:56.435Z,7.29
2018-12-09T16:26:23.842Z,7.37
2018-12-09T16:28:51.745Z,7.47
2018-12-09T16:31:19.164Z,7.42
2018-12-09T16:33:46.971Z,7.56
2018-12-09T16:36:14.504Z,7.57
2018-12-09T16:38:41.999Z,7.51
2018-12-09T16:41:09.519Z,7.48
2018-12-09T16:43:37.277Z,7.50
2018-12-09T16:46:04.748Z,7.45
2018-12-09T16:48:32.179Z,7.46
2018-12-09T16:50:59.596Z,7.43
2018-12-09T16:53:27.112Z,7.44
2018-12-09T16:55:54.571Z,7.39
2018-12-09T16:58:22.031Z,7.31
2018-12-09T17:00:50.027Z,7.38
2018-12-09T17:03:17.444Z,7.40
2018-12-09T17:05:45.222Z,7.34
2018-12-09T17:08:12.687Z,7.35
2018-12-09T17:10:40.104Z,7.35
2018-12-09T17:13:07.528Z,7.34
2018-12-09T17:15:34.948Z,7.30
2018-12-09T17:18:02.412Z,7.30
2018-12-09T17:20:29.875Z,7.31
2018-12-09T17:22:57.287Z,7.30
2018-12-09T17:25:24.791Z,7.27
2018-12-09T17:27:52.223Z,7.25
2018-12-09T17:30:19.707Z,7.22
2018-12-09T17:32:47.161Z,7.21
2018-12-09T17:35:14.574Z,7.25
2018-12-09T17:37:41.988Z,7.21
2018-12-09T17:40:09.428Z,7.22
2018-12-09T17:42:36.879Z,7.16
2018-12-09T17:45:04.340Z,7.12
2018-12-09T17:47:31.788Z,7.10
2018-12-09T17:49:59.261Z,7.14
2018-12-09T17:52:26.719Z,7.15
2018-12-09T17:54:54.134Z,7.14
2018-12-09T17:57:21.561Z,7.18
2018-12-09T17:59:48.979Z,7.20
2018-12-09T18:02:16.452Z,7.20
2018-12-09T18:04:43.871Z,7.24
2018-12-09T18:07:11.365Z,7.15
2018-12-09T18:09:39.654Z,7.16
2018-12-09T18:12:07.100Z,7.13
2018-12-09T18:14:34.556Z,7.17
2018-12-09T18:17:02.004Z,7.19
2018-12-09T18:19:29.416Z,7.25
2018-12-09T18:21:56.845Z,7.14
2018-12-09T18:24:24.270Z,7.13
2018-12-09T18:26:51.828Z,7.09
2018-12-09T18:29:19.296Z,7.11
2018-12-09T18:31:46.751Z,7.09
2018-12-09T18:34:14.210Z,7.07
2018-12-09T18:36:41.631Z,7.04
2018-12-09T18:39:09.132Z,7.11
2018-12-09T18:41:36.554Z,7.15
2018-12-09T18:44:03.974Z,7.12
2018-12-09T18:46:31.398Z,7.08
2018-12-09T18:48:58.860Z,7.05
2018-12-09T18:51:26.288Z,7.00
2018-12-09T18:53:53.710Z,7.08
2018-12-09T18:56:21.600Z,7.12
2018-12-09T18:58:49.037Z,7.09
2018-12-09T19:01:16.462Z,7.07
2018-12-09T19:03:43.891Z,7.07
2018-12-09T19:06:11.316Z,7.12
2018-12-09T19:08:38.825Z,7.09
2018-12-09T19:11:06.278Z,7.09
2018-12-09T19:13:33.696Z,7.06
2018-12-09T19:16:01.131Z,7.08
2018-12-09T19:18:28.569Z,7.08
2018-12-09T19:20:56.008Z,6.94
2018-12-09T19:23:23.480Z,6.99
2018-12-09T19:25:50.921Z,6.92
2018-12-09T19:28:18.331Z,6.86
2018-12-09T19:30:48.396Z,6.86
2018-12-09T19:33:15.776Z,6.80
2018-12-09T19:35:43.194Z,6.81
2018-12-09T19:38:10.634Z,6.84
2018-12-09T19:40:38.048Z,6.83
2018-12-09T19:43:05.460Z,6.83
2018-12-09T19:45:32.875Z,6.85
2018-12-09T19:48:00.296Z,6.85
2018-12-09T19:50:27.721Z,6.82
2018-12-09T19:52:55.155Z,6.80
2018-12-09T19:55:22.563Z,6.78
2018-12-09T19:57:50.023Z,6.79
2018-12-09T20:00:17.433Z,6.72
2018-12-09T20:02:44.938Z,6.72
2018-12-09T20:05:12.358Z,6.80
2018-12-09T20:07:40.610Z,6.62
2018-12-09T20:10:08.017Z,6.58
2018-12-09T20:12:35.431Z,6.59
2018-12-09T20:15:02.839Z,6.52
2018-12-09T20:17:30.815Z,6.56
2018-12-09T20:19:58.229Z,6.59
2018-12-09T20:22:25.638Z,6.64
2018-12-09T20:24:53.089Z,6.66
2018-12-09T20:27:20.508Z,6.69
2018-12-09T20:29:47.938Z,6.68
2018-12-09T20:32:15.364Z,6.68
2018-12-09T20:34:42.796Z,6.72
2018-12-09T20:37:10.384Z,6.74
2018-12-09T20:39:37.826Z,6.69
2018-12-09T20:42:05.239Z,6.74
2018-12-09T20:44:32.739Z,6.66
2018-12-09T20:47:00.159Z,6.62
2018-12-09T20:49:27.600Z,6.47
2018-12-09T20:51:55.099Z,6.33
2018-12-09T20:54:22.523Z,6.24
2018-12-09T20:56:49.939Z,6.20
2018-12-09T20:59:17.384Z,6.15
2018-12-09T21:01:44.843Z,6.05
2018-12-09T21:04:12.255Z,6.00
2018-12-09T21:06:39.695Z,5.97
2018-12-09T21:09:07.119Z,5.99
2018-12-09T21:11:35.408Z,5.89
2018-12-09T21:14:02.846Z,5.92
2018-12-09T21:16:30.732Z,5.92
2018-12-09T21:18:58.160Z,5.99
2018-12-09T21:21:25.571Z,5.95
2018-12-09T21:23:52.999Z,5.59
2018-12-09T21:26:21.295Z,5.32
2018-12-09T21:28:48.720Z,5.27
2018-12-09T21:31:16.598Z,5.09
2018-12-09T21:33:44.051Z,5.12
2018-12-09T21:36:11.921Z,5.15
2018-12-09T21:38:39.406Z,5.25
2018-12-09T21:41:06.852Z,5.39
2018-12-09T21:43:34.275Z,5.43
2018-12-09T22:00:37.790Z,5.72
2018-12-09T22:03:05.209Z,5.76
2018-12-09T22:05:32.648Z,5.83
2018-12-09T22:08:00.436Z,5.95
2018-12-09T22:10:27.927Z,6.00
2018-12-09T22:12:55.806Z,6.17
2018-12-09T22:15:23.227Z,6.26
2018-12-09T22:17:50.644Z,6.33
2018-12-09T22:20:18.073Z,6.36
2018-12-09T22:22:45.490Z,6.32
2018-12-09T22:25:12.980Z,6.30
2018-12-09T22:27:40.393Z,6.34
2018-12-09T22:30:07.812Z,6.36
2018-12-09T22:32:35.219Z,6.38
2018-12-09T22:35:02.702Z,6.36
2018-12-09T22:37:30.198Z,6.30
2018-12-09T22:39:57.604Z,6.26
2018-12-09T22:42:25.032Z,6.21
2018-12-09T22:44:52.539Z,6.25
2018-12-09T22:47:19.991Z,6.24
2018-12-09T22:49:47.412Z,6.20
2018-12-09T22:52:15.291Z,6.14
2018-12-09T22:54:42.712Z,6.05
2018-12-09T22:57:10.399Z,5.99
2018-12-09T22:59:37.888Z,5.95
2018-12-09T23:02:10.864Z,5.92
2018-12-09T23:04:38.331Z,5.90
2018-12-09T23:07:11.190Z,5.95
2018-12-09T23:09:38.611Z,6.07
2018-12-09T23:12:06.032Z,6.04
2018-12-09T23:14:33.447Z,6.12
2018-12-09T23:17:00.859Z,6.10
2018-12-09T23:19:28.402Z,6.10
2018-12-09T23:21:55.833Z,6.16
2018-12-09T23:24:23.330Z,6.17
2018-12-09T23:26:50.804Z,6.29
2018-12-09T23:29:18.221Z,6.26
2018-12-09T23:31:45.627Z,6.29
2018-12-09T23:34:13.047Z,6.29
2018-12-09T23:36:40.503Z,6.25
2018-12-09T23:39:07.922Z,6.22
2018-12-09T23:41:35.418Z,6.26
2018-12-09T23:44:02.846Z,6.26
2018-12-09T23:46:30.266Z,6.22
2018-12-09T23:48:57.687Z,6.11
2018-12-09T23:51:25.135Z,6.14
2018-12-09T23:53:52.559Z,6.12
2018-12-09T23:56:20.141Z,6.08
2018-12-09T23:58:47.553Z,6.02
